sensor_id;sensor_type;location;lat;lon;timestamp;P1;durP1;ratioP1;P2;durP2;ratioP2
54875;SDS011;40764;48.472;8.166;2023-03-05T00:02:24;81.55;;;29.58;;
54875;SDS011;40764;48.472;8.166;2023-03-05T00:08:24;92.55;;;30.95;;
54875;SDS011;40764;48.472;8.166;2023-03-05T00:14:24;80.00;;;27.55;;
54875;SDS011;40764;48.472;8.166;2023-03-05T00:20:25;85.22;;;29.58;;
54875;SDS011;40764;48.472;8.166;2023-03-05T00:26:25;77.57;;;27.23;;
54875;SDS011;40764;48.472;8.166;2023-03-05T00:32:27;80.15;;;26.35;;
54875;SDS011;40764;48.472;8.166;2023-03-05T00:38:28;81.83;;;27.47;;
54875;SDS011;40764;48.472;8.166;2023-03-05T00:44:28;78.50;;;29.77;;
54875;SDS011;40764;48.472;8.166;2023-03-05T00:50:28;81.43;;;26.38;;
54875;SDS011;40764;48.472;8.166;2023-03-05T00:56:29;77.33;;;27.27;;
54875;SDS011;40764;48.472;8.166;2023-03-05T01:02:30;78.80;;;25.90;;
54875;SDS011;40764;48.472;8.166;2023-03-05T01:08:30;87.40;;;26.08;;
54875;SDS011;40764;48.472;8.166;2023-03-05T01:14:30;79.50;;;26.87;;
54875;SDS011;40764;48.472;8.166;2023-03-05T01:20:31;75.07;;;26.67;;
54875;SDS011;40764;48.472;8.166;2023-03-05T01:26:31;74.43;;;25.60;;
54875;SDS011;40764;48.472;8.166;2023-03-05T01:32:33;66.67;;;25.27;;
54875;SDS011;40764;48.472;8.166;2023-03-05T01:38:34;84.50;;;25.60;;
54875;SDS011;40764;48.472;8.166;2023-03-05T01:44:34;87.57;;;27.87;;
54875;SDS011;40764;48.472;8.166;2023-03-05T01:50:35;67.32;;;24.98;;
54875;SDS011;40764;48.472;8.166;2023-03-05T01:56:35;80.57;;;28.93;;
54875;SDS011;40764;48.472;8.166;2023-03-05T02:02:38;85.88;;;27.40;;
54875;SDS011;40764;48.472;8.166;2023-03-05T02:08:38;78.33;;;25.73;;
54875;SDS011;40764;48.472;8.166;2023-03-05T02:14:39;82.23;;;27.97;;
54875;SDS011;40764;48.472;8.166;2023-03-05T02:20:52;72.95;;;25.67;;
54875;SDS011;40764;48.472;8.166;2023-03-05T02:26:55;84.95;;;26.45;;
54875;SDS011;40764;48.472;8.166;2023-03-05T02:32:56;77.83;;;25.63;;
54875;SDS011;40764;48.472;8.166;2023-03-05T02:38:57;78.47;;;25.37;;
54875;SDS011;40764;48.472;8.166;2023-03-05T02:44:59;73.23;;;26.03;;
54875;SDS011;40764;48.472;8.166;2023-03-05T02:51:00;73.72;;;24.60;;
54875;SDS011;40764;48.472;8.166;2023-03-05T02:57:02;69.63;;;23.48;;
54875;SDS011;40764;48.472;8.166;2023-03-05T03:03:02;64.20;;;23.50;;
54875;SDS011;40764;48.472;8.166;2023-03-05T03:09:02;72.03;;;26.37;;
54875;SDS011;40764;48.472;8.166;2023-03-05T03:15:03;76.43;;;24.05;;
54875;SDS011;40764;48.472;8.166;2023-03-05T03:21:04;82.77;;;25.80;;
54875;SDS011;40764;48.472;8.166;2023-03-05T03:27:04;77.23;;;25.50;;
54875;SDS011;40764;48.472;8.166;2023-03-05T03:33:05;69.73;;;24.37;;
54875;SDS011;40764;48.472;8.166;2023-03-05T03:39:05;78.60;;;26.63;;
54875;SDS011;40764;48.472;8.166;2023-03-05T03:45:06;77.83;;;25.70;;
54875;SDS011;40764;48.472;8.166;2023-03-05T03:51:06;75.63;;;26.30;;
54875;SDS011;40764;48.472;8.166;2023-03-05T03:57:07;63.78;;;25.20;;
54875;SDS011;40764;48.472;8.166;2023-03-05T04:03:08;70.53;;;26.53;;
54875;SDS011;40764;48.472;8.166;2023-03-05T04:09:08;64.53;;;23.02;;
54875;SDS011;40764;48.472;8.166;2023-03-05T04:15:09;72.60;;;24.73;;
54875;SDS011;40764;48.472;8.166;2023-03-05T04:21:09;72.13;;;24.03;;
54875;SDS011;40764;48.472;8.166;2023-03-05T04:27:10;65.87;;;24.13;;
54875;SDS011;40764;48.472;8.166;2023-03-05T04:33:10;71.00;;;24.80;;
54875;SDS011;40764;48.472;8.166;2023-03-05T04:39:11;74.00;;;24.23;;
54875;SDS011;40764;48.472;8.166;2023-03-05T04:45:12;74.03;;;23.47;;
54875;SDS011;40764;48.472;8.166;2023-03-05T04:51:13;65.00;;;24.17;;
54875;SDS011;40764;48.472;8.166;2023-03-05T04:57:13;71.68;;;24.40;;
54875;SDS011;40764;48.472;8.166;2023-03-05T05:03:13;74.53;;;23.23;;
54875;SDS011;40764;48.472;8.166;2023-03-05T05:09:14;58.53;;;23.27;;
54875;SDS011;40764;48.472;8.166;2023-03-05T05:15:14;63.03;;;23.87;;
54875;SDS011;40764;48.472;8.166;2023-03-05T05:21:14;61.95;;;23.05;;
54875;SDS011;40764;48.472;8.166;2023-03-05T05:27:17;67.10;;;23.33;;
54875;SDS011;40764;48.472;8.166;2023-03-05T05:33:17;67.07;;;22.58;;
54875;SDS011;40764;48.472;8.166;2023-03-05T05:39:18;60.50;;;21.83;;
54875;SDS011;40764;48.472;8.166;2023-03-05T05:45:18;67.77;;;23.77;;
54875;SDS011;40764;48.472;8.166;2023-03-05T05:51:20;70.03;;;23.02;;
54875;SDS011;40764;48.472;8.166;2023-03-05T05:57:21;64.28;;;22.42;;
54875;SDS011;40764;48.472;8.166;2023-03-05T06:03:22;69.43;;;22.90;;
54875;SDS011;40764;48.472;8.166;2023-03-05T06:09:22;72.63;;;23.47;;
54875;SDS011;40764;48.472;8.166;2023-03-05T06:15:22;64.97;;;22.75;;
54875;SDS011;40764;48.472;8.166;2023-03-05T06:21:23;69.50;;;22.85;;
54875;SDS011;40764;48.472;8.166;2023-03-05T06:27:23;66.40;;;21.53;;
54875;SDS011;40764;48.472;8.166;2023-03-05T06:33:23;61.63;;;21.70;;
54875;SDS011;40764;48.472;8.166;2023-03-05T06:39:24;59.43;;;21.03;;
54875;SDS011;40764;48.472;8.166;2023-03-05T06:45:24;61.17;;;21.20;;
54875;SDS011;40764;48.472;8.166;2023-03-05T06:57:26;75.28;;;24.63;;
54875;SDS011;40764;48.472;8.166;2023-03-05T07:03:26;67.35;;;25.50;;
54875;SDS011;40764;48.472;8.166;2023-03-05T07:09:26;75.05;;;21.88;;
54875;SDS011;40764;48.472;8.166;2023-03-05T07:15:27;62.72;;;20.50;;
54875;SDS011;40764;48.472;8.166;2023-03-05T07:21:28;64.13;;;21.98;;
54875;SDS011;40764;48.472;8.166;2023-03-05T07:27:35;57.95;;;20.13;;
54875;SDS011;40764;48.472;8.166;2023-03-05T07:33:37;69.97;;;24.00;;
54875;SDS011;40764;48.472;8.166;2023-03-05T07:39:37;71.53;;;25.83;;
54875;SDS011;40764;48.472;8.166;2023-03-05T07:45:38;117.10;;;49.85;;
54875;SDS011;40764;48.472;8.166;2023-03-05T07:51:40;82.53;;;30.42;;
54875;SDS011;40764;48.472;8.166;2023-03-05T07:57:40;69.73;;;24.87;;
54875;SDS011;40764;48.472;8.166;2023-03-05T08:03:41;79.95;;;31.77;;
54875;SDS011;40764;48.472;8.166;2023-03-05T08:09:42;90.70;;;35.78;;
54875;SDS011;40764;48.472;8.166;2023-03-05T08:15:42;65.77;;;25.40;;
54875;SDS011;40764;48.472;8.166;2023-03-05T08:21:43;76.18;;;24.60;;
54875;SDS011;40764;48.472;8.166;2023-03-05T08:27:44;63.73;;;22.77;;
54875;SDS011;40764;48.472;8.166;2023-03-05T08:33:47;66.78;;;24.25;;
54875;SDS011;40764;48.472;8.166;2023-03-05T08:39:48;64.63;;;21.25;;
54875;SDS011;40764;48.472;8.166;2023-03-05T08:45:48;64.47;;;21.83;;
54875;SDS011;40764;48.472;8.166;2023-03-05T08:51:50;63.13;;;24.15;;
54875;SDS011;40764;48.472;8.166;2023-03-05T08:57:50;57.97;;;23.73;;
54875;SDS011;40764;48.472;8.166;2023-03-05T09:03:50;59.90;;;22.02;;
54875;SDS011;40764;48.472;8.166;2023-03-05T09:09:51;69.60;;;22.77;;
54875;SDS011;40764;48.472;8.166;2023-03-05T09:15:58;73.85;;;25.65;;
54875;SDS011;40764;48.472;8.166;2023-03-05T09:22:00;61.00;;;22.55;;
54875;SDS011;40764;48.472;8.166;2023-03-05T09:28:01;156.45;;;49.67;;
54875;SDS011;40764;48.472;8.166;2023-03-05T09:34:01;79.65;;;24.50;;
54875;SDS011;40764;48.472;8.166;2023-03-05T09:40:03;55.83;;;19.75;;
54875;SDS011;40764;48.472;8.166;2023-03-05T09:52:20;74.68;;;24.10;;
54875;SDS011;40764;48.472;8.166;2023-03-05T09:58:29;58.92;;;19.77;;
54875;SDS011;40764;48.472;8.166;2023-03-05T10:04:40;67.85;;;21.40;;
54875;SDS011;40764;48.472;8.166;2023-03-05T10:10:49;72.10;;;24.30;;
54875;SDS011;40764;48.472;8.166;2023-03-05T10:23:30;77.65;;;25.08;;
54875;SDS011;40764;48.472;8.166;2023-03-05T10:48:57;55.65;;;19.85;;
54875;SDS011;40764;48.472;8.166;2023-03-05T10:55:01;56.13;;;20.65;;
54875;SDS011;40764;48.472;8.166;2023-03-05T11:13:23;66.05;;;21.80;;
54875;SDS011;40764;48.472;8.166;2023-03-05T11:19:27;73.32;;;24.95;;
54875;SDS011;40764;48.472;8.166;2023-03-05T11:25:32;70.90;;;23.80;;
54875;SDS011;40764;48.472;8.166;2023-03-05T11:31:34;71.63;;;24.63;;
54875;SDS011;40764;48.472;8.166;2023-03-05T11:37:34;74.50;;;25.90;;
54875;SDS011;40764;48.472;8.166;2023-03-05T11:43:35;70.18;;;27.10;;
54875;SDS011;40764;48.472;8.166;2023-03-05T11:49:39;67.70;;;25.00;;
54875;SDS011;40764;48.472;8.166;2023-03-05T11:55:45;78.30;;;25.98;;
54875;SDS011;40764;48.472;8.166;2023-03-05T12:01:50;67.88;;;25.45;;
54875;SDS011;40764;48.472;8.166;2023-03-05T12:07:54;81.32;;;28.42;;
54875;SDS011;40764;48.472;8.166;2023-03-05T12:32:53;71.35;;;25.15;;
54875;SDS011;40764;48.472;8.166;2023-03-05T12:38:55;70.30;;;24.42;;
54875;SDS011;40764;48.472;8.166;2023-03-05T12:51:10;69.00;;;25.25;;
54875;SDS011;40764;48.472;8.166;2023-03-05T12:57:14;59.20;;;22.38;;
54875;SDS011;40764;48.472;8.166;2023-03-05T13:03:27;59.15;;;21.00;;
54875;SDS011;40764;48.472;8.166;2023-03-05T13:09:32;49.45;;;21.17;;
54875;SDS011;40764;48.472;8.166;2023-03-05T13:15:35;53.78;;;22.13;;
54875;SDS011;40764;48.472;8.166;2023-03-05T13:21:35;57.60;;;22.23;;
54875;SDS011;40764;48.472;8.166;2023-03-05T13:27:36;59.10;;;21.37;;
54875;SDS011;40764;48.472;8.166;2023-03-05T13:33:36;52.40;;;21.27;;
54875;SDS011;40764;48.472;8.166;2023-03-05T13:39:42;57.67;;;21.23;;
54875;SDS011;40764;48.472;8.166;2023-03-05T13:45:52;49.80;;;19.88;;
54875;SDS011;40764;48.472;8.166;2023-03-05T13:51:56;56.50;;;22.98;;
54875;SDS011;40764;48.472;8.166;2023-03-05T13:57:58;55.70;;;21.98;;
54875;SDS011;40764;48.472;8.166;2023-03-05T14:04:15;44.47;;;18.33;;
54875;SDS011;40764;48.472;8.166;2023-03-05T14:10:25;41.00;;;15.68;;
54875;SDS011;40764;48.472;8.166;2023-03-05T14:16:37;40.10;;;17.15;;
54875;SDS011;40764;48.472;8.166;2023-03-05T14:22:38;42.20;;;18.00;;
54875;SDS011;40764;48.472;8.166;2023-03-05T14:28:40;34.88;;;16.20;;
54875;SDS011;40764;48.472;8.166;2023-03-05T14:34:40;40.50;;;17.33;;
54875;SDS011;40764;48.472;8.166;2023-03-05T14:40:42;45.20;;;17.27;;
54875;SDS011;40764;48.472;8.166;2023-03-05T14:46:46;37.60;;;15.23;;
54875;SDS011;40764;48.472;8.166;2023-03-05T14:52:49;35.63;;;16.98;;
54875;SDS011;40764;48.472;8.166;2023-03-05T14:58:53;35.40;;;14.10;;
54875;SDS011;40764;48.472;8.166;2023-03-05T15:04:54;43.30;;;19.17;;
54875;SDS011;40764;48.472;8.166;2023-03-05T15:10:54;37.97;;;16.63;;
54875;SDS011;40764;48.472;8.166;2023-03-05T15:16:55;37.23;;;16.27;;
54875;SDS011;40764;48.472;8.166;2023-03-05T15:22:55;45.57;;;17.30;;
54875;SDS011;40764;48.472;8.166;2023-03-05T15:28:56;43.38;;;17.77;;
54875;SDS011;40764;48.472;8.166;2023-03-05T15:34:57;41.67;;;18.03;;
54875;SDS011;40764;48.472;8.166;2023-03-05T15:40:57;41.15;;;18.38;;
54875;SDS011;40764;48.472;8.166;2023-03-05T15:46:58;43.53;;;17.73;;
54875;SDS011;40764;48.472;8.166;2023-03-05T15:52:58;41.95;;;16.75;;
54875;SDS011;40764;48.472;8.166;2023-03-05T15:58:59;45.50;;;18.40;;
54875;SDS011;40764;48.472;8.166;2023-03-05T16:05:00;51.27;;;19.57;;
54875;SDS011;40764;48.472;8.166;2023-03-05T16:11:00;51.15;;;19.65;;
54875;SDS011;40764;48.472;8.166;2023-03-05T16:17:01;41.40;;;20.00;;
54875;SDS011;40764;48.472;8.166;2023-03-05T16:23:02;43.20;;;18.30;;
54875;SDS011;40764;48.472;8.166;2023-03-05T16:29:03;47.60;;;19.42;;
54875;SDS011;40764;48.472;8.166;2023-03-05T16:35:04;58.90;;;21.67;;
54875;SDS011;40764;48.472;8.166;2023-03-05T16:41:05;50.03;;;19.77;;
54875;SDS011;40764;48.472;8.166;2023-03-05T16:47:05;48.15;;;20.92;;
54875;SDS011;40764;48.472;8.166;2023-03-05T16:53:06;46.17;;;20.97;;
54875;SDS011;40764;48.472;8.166;2023-03-05T16:59:06;42.45;;;19.48;;
54875;SDS011;40764;48.472;8.166;2023-03-05T17:05:07;78.35;;;29.45;;
54875;SDS011;40764;48.472;8.166;2023-03-05T17:11:07;54.60;;;22.10;;
54875;SDS011;40764;48.472;8.166;2023-03-05T17:17:08;52.70;;;21.57;;
54875;SDS011;40764;48.472;8.166;2023-03-05T17:23:09;50.03;;;20.00;;
54875;SDS011;40764;48.472;8.166;2023-03-05T17:29:10;44.20;;;18.55;;
54875;SDS011;40764;48.472;8.166;2023-03-05T17:35:20;57.33;;;23.90;;
54875;SDS011;40764;48.472;8.166;2023-03-05T17:41:21;46.83;;;18.92;;
54875;SDS011;40764;48.472;8.166;2023-03-05T17:47:21;40.87;;;17.90;;
54875;SDS011;40764;48.472;8.166;2023-03-05T17:53:22;54.97;;;19.07;;
54875;SDS011;40764;48.472;8.166;2023-03-05T17:59:23;62.53;;;22.63;;
54875;SDS011;40764;48.472;8.166;2023-03-05T18:05:24;53.47;;;22.88;;
54875;SDS011;40764;48.472;8.166;2023-03-05T18:11:26;45.13;;;17.15;;
54875;SDS011;40764;48.472;8.166;2023-03-05T18:23:28;38.83;;;17.58;;
54875;SDS011;40764;48.472;8.166;2023-03-05T18:29:28;57.50;;;20.73;;
54875;SDS011;40764;48.472;8.166;2023-03-05T18:35:28;72.53;;;23.75;;
54875;SDS011;40764;48.472;8.166;2023-03-05T18:41:29;51.10;;;18.90;;
54875;SDS011;40764;48.472;8.166;2023-03-05T18:47:31;47.10;;;17.53;;
54875;SDS011;40764;48.472;8.166;2023-03-05T18:59:32;72.53;;;28.92;;
54875;SDS011;40764;48.472;8.166;2023-03-05T19:05:33;63.50;;;27.58;;
54875;SDS011;40764;48.472;8.166;2023-03-05T19:11:33;66.47;;;28.33;;
54875;SDS011;40764;48.472;8.166;2023-03-05T19:17:34;45.92;;;17.70;;
54875;SDS011;40764;48.472;8.166;2023-03-05T19:23:34;71.05;;;27.02;;
54875;SDS011;40764;48.472;8.166;2023-03-05T19:29:35;49.33;;;19.80;;
54875;SDS011;40764;48.472;8.166;2023-03-05T19:35:36;37.50;;;15.57;;
54875;SDS011;40764;48.472;8.166;2023-03-05T19:41:39;41.22;;;17.33;;
54875;SDS011;40764;48.472;8.166;2023-03-05T19:47:40;47.07;;;16.60;;
54875;SDS011;40764;48.472;8.166;2023-03-05T19:53:40;49.72;;;17.75;;
54875;SDS011;40764;48.472;8.166;2023-03-05T19:59:41;37.72;;;16.98;;
54875;SDS011;40764;48.472;8.166;2023-03-05T20:05:43;42.15;;;16.55;;
54875;SDS011;40764;48.472;8.166;2023-03-05T20:11:43;39.70;;;17.67;;
54875;SDS011;40764;48.472;8.166;2023-03-05T20:17:44;47.30;;;17.97;;
54875;SDS011;40764;48.472;8.166;2023-03-05T20:23:44;49.00;;;17.30;;
54875;SDS011;40764;48.472;8.166;2023-03-05T20:29:45;48.93;;;19.20;;
54875;SDS011;40764;48.472;8.166;2023-03-05T20:35:45;52.83;;;17.87;;
54875;SDS011;40764;48.472;8.166;2023-03-05T20:41:46;56.08;;;18.15;;
54875;SDS011;40764;48.472;8.166;2023-03-05T20:47:47;50.40;;;18.40;;
54875;SDS011;40764;48.472;8.166;2023-03-05T20:53:48;47.80;;;18.67;;
54875;SDS011;40764;48.472;8.166;2023-03-05T20:59:53;43.72;;;17.70;;
54875;SDS011;40764;48.472;8.166;2023-03-05T21:05:53;46.70;;;18.47;;
54875;SDS011;40764;48.472;8.166;2023-03-05T21:11:55;47.25;;;17.90;;
54875;SDS011;40764;48.472;8.166;2023-03-05T21:17:56;46.03;;;16.73;;
54875;SDS011;40764;48.472;8.166;2023-03-05T21:23:57;67.00;;;25.57;;
54875;SDS011;40764;48.472;8.166;2023-03-05T21:29:57;43.00;;;18.45;;
54875;SDS011;40764;48.472;8.166;2023-03-05T21:35:57;51.43;;;19.83;;
54875;SDS011;40764;48.472;8.166;2023-03-05T21:41:58;42.93;;;17.40;;
54875;SDS011;40764;48.472;8.166;2023-03-05T21:47:58;50.37;;;19.03;;
54875;SDS011;40764;48.472;8.166;2023-03-05T21:53:59;47.17;;;17.30;;
54875;SDS011;40764;48.472;8.166;2023-03-05T21:59:59;47.22;;;18.90;;
54875;SDS011;40764;48.472;8.166;2023-03-05T22:05:59;44.73;;;17.07;;
54875;SDS011;40764;48.472;8.166;2023-03-05T22:12:00;52.10;;;19.03;;
54875;SDS011;40764;48.472;8.166;2023-03-05T22:18:01;51.37;;;17.87;;
54875;SDS011;40764;48.472;8.166;2023-03-05T22:24:01;42.10;;;18.37;;
54875;SDS011;40764;48.472;8.166;2023-03-05T22:30:02;44.33;;;17.37;;
54875;SDS011;40764;48.472;8.166;2023-03-05T22:36:06;48.15;;;19.05;;
54875;SDS011;40764;48.472;8.166;2023-03-05T22:42:08;45.65;;;18.10;;
54875;SDS011;40764;48.472;8.166;2023-03-05T22:48:09;41.05;;;17.25;;
54875;SDS011;40764;48.472;8.166;2023-03-05T22:54:10;54.33;;;20.83;;
54875;SDS011;40764;48.472;8.166;2023-03-05T23:00:12;38.43;;;16.37;;
54875;SDS011;40764;48.472;8.166;2023-03-05T23:06:15;52.83;;;17.58;;
54875;SDS011;40764;48.472;8.166;2023-03-05T23:12:15;52.25;;;16.63;;
54875;SDS011;40764;48.472;8.166;2023-03-05T23:18:16;43.13;;;16.30;;
54875;SDS011;40764;48.472;8.166;2023-03-05T23:24:16;40.63;;;16.93;;
54875;SDS011;40764;48.472;8.166;2023-03-05T23:30:17;46.85;;;16.08;;
54875;SDS011;40764;48.472;8.166;2023-03-05T23:36:22;32.70;;;14.55;;
54875;SDS011;40764;48.472;8.166;2023-03-05T23:42:23;40.63;;;15.60;;
54875;SDS011;40764;48.472;8.166;2023-03-05T23:48:23;46.13;;;16.25;;
54875;SDS011;40764;48.472;8.166;2023-03-05T23:54:25;39.78;;;15.55;;
